sensor_id;sensor_type;location;lat;lon;timestamp;temperature;humidity
41294;DHT22;27037;52.010;4.446;2022-12-07T00:00:03;5.40;99.90
41294;DHT22;27037;52.010;4.446;2022-12-07T00:02:29;5.40;99.90
41294;DHT22;27037;52.010;4.446;2022-12-07T00:04:55;5.50;99.90
41294;DHT22;27037;52.010;4.446;2022-12-07T00:07:21;5.50;99.90
41294;DHT22;27037;52.010;4.446;2022-12-07T00:09:47;5.60;99.90
41294;DHT22;27037;52.010;4.446;2022-12-07T00:12:12;5.70;99.90
41294;DHT22;27037;52.010;4.446;2022-12-07T00:14:38;5.70;99.90
41294;DHT22;27037;52.010;4.446;2022-12-07T00:17:03;5.70;99.90
41294;DHT22;27037;52.010;4.446;2022-12-07T00:19:29;5.70;99.90
41294;DHT22;27037;52.010;4.446;2022-12-07T00:21:54;5.60;99.90
41294;DHT22;27037;52.010;4.446;2022-12-07T00:24:20;5.60;99.90
41294;DHT22;27037;52.010;4.446;2022-12-07T00:26:46;5.50;99.90
41294;DHT22;27037;52.010;4.446;2022-12-07T00:29:18;5.40;99.90
41294;DHT22;27037;52.010;4.446;2022-12-07T00:31:45;5.30;99.90
41294;DHT22;27037;52.010;4.446;2022-12-07T00:34:16;5.20;99.90
41294;DHT22;27037;52.010;4.446;2022-12-07T00:36:41;5.20;99.90
41294;DHT22;27037;52.010;4.446;2022-12-07T00:39:07;5.10;99.90
41294;DHT22;27037;52.010;4.446;2022-12-07T00:41:33;5.00;99.90
41294;DHT22;27037;52.010;4.446;2022-12-07T00:43:59;4.90;99.90
41294;DHT22;27037;52.010;4.446;2022-12-07T00:46:25;4.80;99.90
41294;DHT22;27037;52.010;4.446;2022-12-07T00:48:52;4.80;99.90
41294;DHT22;27037;52.010;4.446;2022-12-07T00:51:20;4.70;99.90
41294;DHT22;27037;52.010;4.446;2022-12-07T00:53:46;4.60;99.90
41294;DHT22;27037;52.010;4.446;2022-12-07T00:56:13;4.60;99.90
41294;DHT22;27037;52.010;4.446;2022-12-07T00:58:39;4.50;99.90
41294;DHT22;27037;52.010;4.446;2022-12-07T01:01:06;4.40;99.90
41294;DHT22;27037;52.010;4.446;2022-12-07T01:03:32;4.40;99.90
41294;DHT22;27037;52.010;4.446;2022-12-07T01:05:58;4.30;99.90
41294;DHT22;27037;52.010;4.446;2022-12-07T01:08:26;4.30;99.90
41294;DHT22;27037;52.010;4.446;2022-12-07T01:11:06;4.20;99.90
41294;DHT22;27037;52.010;4.446;2022-12-07T01:13:34;4.20;99.90
41294;DHT22;27037;52.010;4.446;2022-12-07T01:16:03;4.10;99.90
41294;DHT22;27037;52.010;4.446;2022-12-07T01:18:30;4.10;99.90
41294;DHT22;27037;52.010;4.446;2022-12-07T01:21:23;4.00;99.90
41294;DHT22;27037;52.010;4.446;2022-12-07T01:23:49;4.00;99.90
41294;DHT22;27037;52.010;4.446;2022-12-07T01:26:18;4.00;99.90
41294;DHT22;27037;52.010;4.446;2022-12-07T01:28:44;3.90;99.90
41294;DHT22;27037;52.010;4.446;2022-12-07T01:31:14;3.90;99.90
41294;DHT22;27037;52.010;4.446;2022-12-07T01:33:46;3.90;99.90
41294;DHT22;27037;52.010;4.446;2022-12-07T01:36:33;3.80;99.90
41294;DHT22;27037;52.010;4.446;2022-12-07T01:39:05;3.80;99.90
41294;DHT22;27037;52.010;4.446;2022-12-07T01:41:33;3.80;99.90
41294;DHT22;27037;52.010;4.446;2022-12-07T01:46:52;3.70;99.90
41294;DHT22;27037;52.010;4.446;2022-12-07T01:49:34;3.70;99.90
41294;DHT22;27037;52.010;4.446;2022-12-07T01:54:46;4.00;99.90
41294;DHT22;27037;52.010;4.446;2022-12-07T01:57:14;4.20;99.90
41294;DHT22;27037;52.010;4.446;2022-12-07T01:59:42;4.30;99.90
41294;DHT22;27037;52.010;4.446;2022-12-07T02:02:12;4.40;99.90
41294;DHT22;27037;52.010;4.446;2022-12-07T02:04:39;4.50;99.90
41294;DHT22;27037;52.010;4.446;2022-12-07T02:07:05;4.50;99.90
41294;DHT22;27037;52.010;4.446;2022-12-07T02:09:31;4.50;99.90
41294;DHT22;27037;52.010;4.446;2022-12-07T02:11:57;4.50;99.90
41294;DHT22;27037;52.010;4.446;2022-12-07T02:14:22;4.40;99.90
41294;DHT22;27037;52.010;4.446;2022-12-07T02:17:19;4.40;99.90
41294;DHT22;27037;52.010;4.446;2022-12-07T02:28:06;4.20;99.90
41294;DHT22;27037;52.010;4.446;2022-12-07T02:30:35;4.10;99.90
41294;DHT22;27037;52.010;4.446;2022-12-07T02:33:06;4.20;99.90
41294;DHT22;27037;52.010;4.446;2022-12-07T02:35:40;4.20;99.90
41294;DHT22;27037;52.010;4.446;2022-12-07T02:38:19;4.30;99.90
41294;DHT22;27037;52.010;4.446;2022-12-07T02:40:55;4.30;99.90
41294;DHT22;27037;52.010;4.446;2022-12-07T02:43:28;4.30;99.90
41294;DHT22;27037;52.010;4.446;2022-12-07T02:46:00;4.20;99.90
41294;DHT22;27037;52.010;4.446;2022-12-07T02:48:27;4.20;99.90
41294;DHT22;27037;52.010;4.446;2022-12-07T02:51:11;4.20;99.90
41294;DHT22;27037;52.010;4.446;2022-12-07T02:53:39;4.10;99.90
41294;DHT22;27037;52.010;4.446;2022-12-07T03:08:21;4.20;99.90
41294;DHT22;27037;52.010;4.446;2022-12-07T03:10:56;4.30;99.90
41294;DHT22;27037;52.010;4.446;2022-12-07T03:13:31;4.40;99.90
41294;DHT22;27037;52.010;4.446;2022-12-07T03:18:53;4.60;99.90
41294;DHT22;27037;52.010;4.446;2022-12-07T03:21:31;4.60;99.90
41294;DHT22;27037;52.010;4.446;2022-12-07T03:24:00;4.60;99.90
41294;DHT22;27037;52.010;4.446;2022-12-07T03:26:34;4.70;99.90
41294;DHT22;27037;52.010;4.446;2022-12-07T03:29:07;4.70;99.90
41294;DHT22;27037;52.010;4.446;2022-12-07T03:31:41;4.70;99.90
41294;DHT22;27037;52.010;4.446;2022-12-07T03:34:21;4.70;99.90
41294;DHT22;27037;52.010;4.446;2022-12-07T03:37:08;4.70;99.90
41294;DHT22;27037;52.010;4.446;2022-12-07T03:42:32;4.80;99.90
41294;DHT22;27037;52.010;4.446;2022-12-07T03:44:59;4.90;99.90
41294;DHT22;27037;52.010;4.446;2022-12-07T03:50:03;4.80;99.90
41294;DHT22;27037;52.010;4.446;2022-12-07T03:52:42;4.80;99.90
41294;DHT22;27037;52.010;4.446;2022-12-07T03:55:20;4.80;99.90
41294;DHT22;27037;52.010;4.446;2022-12-07T03:57:51;4.80;99.90
41294;DHT22;27037;52.010;4.446;2022-12-07T04:00:19;4.70;99.90
41294;DHT22;27037;52.010;4.446;2022-12-07T04:02:44;4.70;99.90
41294;DHT22;27037;52.010;4.446;2022-12-07T04:05:11;4.60;99.90
41294;DHT22;27037;52.010;4.446;2022-12-07T04:07:36;4.50;99.90
41294;DHT22;27037;52.010;4.446;2022-12-07T04:10:03;4.50;99.90
41294;DHT22;27037;52.010;4.446;2022-12-07T04:12:29;4.50;99.90
41294;DHT22;27037;52.010;4.446;2022-12-07T04:14:54;4.40;99.90
41294;DHT22;27037;52.010;4.446;2022-12-07T04:17:20;4.40;99.90
41294;DHT22;27037;52.010;4.446;2022-12-07T04:19:46;4.40;99.90
41294;DHT22;27037;52.010;4.446;2022-12-07T04:22:11;4.40;99.90
41294;DHT22;27037;52.010;4.446;2022-12-07T04:24:37;4.40;99.90
41294;DHT22;27037;52.010;4.446;2022-12-07T04:27:03;4.30;99.90
41294;DHT22;27037;52.010;4.446;2022-12-07T04:29:28;4.40;99.90
41294;DHT22;27037;52.010;4.446;2022-12-07T04:31:54;4.40;99.90
41294;DHT22;27037;52.010;4.446;2022-12-07T04:34:20;4.40;99.90
41294;DHT22;27037;52.010;4.446;2022-12-07T04:36:46;4.40;99.90
41294;DHT22;27037;52.010;4.446;2022-12-07T04:39:22;4.40;99.90
41294;DHT22;27037;52.010;4.446;2022-12-07T04:41:49;4.40;99.90
41294;DHT22;27037;52.010;4.446;2022-12-07T04:44:15;4.40;99.90
41294;DHT22;27037;52.010;4.446;2022-12-07T04:46:42;4.30;99.90
41294;DHT22;27037;52.010;4.446;2022-12-07T04:49:07;4.30;99.90
41294;DHT22;27037;52.010;4.446;2022-12-07T04:51:33;4.30;99.90
41294;DHT22;27037;52.010;4.446;2022-12-07T04:53:59;4.20;99.90
41294;DHT22;27037;52.010;4.446;2022-12-07T04:56:25;4.20;99.90
41294;DHT22;27037;52.010;4.446;2022-12-07T04:58:53;4.10;99.90
41294;DHT22;27037;52.010;4.446;2022-12-07T05:01:19;4.00;99.90
41294;DHT22;27037;52.010;4.446;2022-12-07T05:03:45;4.00;99.90
41294;DHT22;27037;52.010;4.446;2022-12-07T05:06:12;4.00;99.90
41294;DHT22;27037;52.010;4.446;2022-12-07T05:08:38;3.90;99.90
41294;DHT22;27037;52.010;4.446;2022-12-07T05:11:05;3.90;99.90
41294;DHT22;27037;52.010;4.446;2022-12-07T05:13:31;3.90;99.90
41294;DHT22;27037;52.010;4.446;2022-12-07T05:15:57;3.90;99.90
41294;DHT22;27037;52.010;4.446;2022-12-07T05:18:23;3.80;99.90
41294;DHT22;27037;52.010;4.446;2022-12-07T05:20:49;3.80;99.90
41294;DHT22;27037;52.010;4.446;2022-12-07T05:23:14;3.80;99.90
41294;DHT22;27037;52.010;4.446;2022-12-07T05:25:40;3.80;99.90
41294;DHT22;27037;52.010;4.446;2022-12-07T05:28:06;3.70;99.90
41294;DHT22;27037;52.010;4.446;2022-12-07T05:30:32;3.70;99.90
41294;DHT22;27037;52.010;4.446;2022-12-07T05:32:57;3.70;99.90
41294;DHT22;27037;52.010;4.446;2022-12-07T05:35:24;3.70;99.90
41294;DHT22;27037;52.010;4.446;2022-12-07T05:37:50;3.70;99.90
41294;DHT22;27037;52.010;4.446;2022-12-07T05:40:16;3.70;99.90
41294;DHT22;27037;52.010;4.446;2022-12-07T05:42:42;3.60;99.90
41294;DHT22;27037;52.010;4.446;2022-12-07T05:45:08;3.60;99.90
41294;DHT22;27037;52.010;4.446;2022-12-07T05:47:35;3.60;99.90
41294;DHT22;27037;52.010;4.446;2022-12-07T05:50:01;3.50;99.90
41294;DHT22;27037;52.010;4.446;2022-12-07T05:52:26;3.50;99.90
41294;DHT22;27037;52.010;4.446;2022-12-07T05:54:52;3.50;99.90
41294;DHT22;27037;52.010;4.446;2022-12-07T05:57:18;3.40;99.90
41294;DHT22;27037;52.010;4.446;2022-12-07T05:59:44;3.40;99.90
41294;DHT22;27037;52.010;4.446;2022-12-07T06:02:12;3.40;99.90
41294;DHT22;27037;52.010;4.446;2022-12-07T06:04:44;3.30;99.90
41294;DHT22;27037;52.010;4.446;2022-12-07T06:07:11;3.30;99.90
41294;DHT22;27037;52.010;4.446;2022-12-07T06:09:37;3.30;99.90
41294;DHT22;27037;52.010;4.446;2022-12-07T06:12:04;3.20;99.90
41294;DHT22;27037;52.010;4.446;2022-12-07T06:14:48;3.20;99.90
41294;DHT22;27037;52.010;4.446;2022-12-07T06:17:14;3.20;99.90
41294;DHT22;27037;52.010;4.446;2022-12-07T06:19:40;3.10;99.90
41294;DHT22;27037;52.010;4.446;2022-12-07T06:22:06;3.10;99.90
41294;DHT22;27037;52.010;4.446;2022-12-07T06:24:35;3.10;99.90
41294;DHT22;27037;52.010;4.446;2022-12-07T06:27:01;3.10;99.90
41294;DHT22;27037;52.010;4.446;2022-12-07T06:29:27;3.10;99.90
41294;DHT22;27037;52.010;4.446;2022-12-07T06:31:52;3.10;99.90
41294;DHT22;27037;52.010;4.446;2022-12-07T06:34:20;3.00;99.90
41294;DHT22;27037;52.010;4.446;2022-12-07T06:36:48;3.00;99.90
41294;DHT22;27037;52.010;4.446;2022-12-07T06:39:24;3.00;99.90
41294;DHT22;27037;52.010;4.446;2022-12-07T06:41:50;3.00;99.90
41294;DHT22;27037;52.010;4.446;2022-12-07T06:44:17;3.00;99.90
41294;DHT22;27037;52.010;4.446;2022-12-07T06:46:43;3.00;99.90
41294;DHT22;27037;52.010;4.446;2022-12-07T06:49:09;3.00;99.90
41294;DHT22;27037;52.010;4.446;2022-12-07T06:51:34;2.90;99.90
41294;DHT22;27037;52.010;4.446;2022-12-07T06:54:02;3.10;99.90
41294;DHT22;27037;52.010;4.446;2022-12-07T06:56:28;3.20;99.90
41294;DHT22;27037;52.010;4.446;2022-12-07T06:58:54;3.50;99.90
41294;DHT22;27037;52.010;4.446;2022-12-07T07:01:20;3.70;99.90
41294;DHT22;27037;52.010;4.446;2022-12-07T07:03:46;3.80;99.90
41294;DHT22;27037;52.010;4.446;2022-12-07T07:06:12;3.80;99.90
41294;DHT22;27037;52.010;4.446;2022-12-07T07:08:39;3.90;99.90
41294;DHT22;27037;52.010;4.446;2022-12-07T07:11:06;3.80;99.90
41294;DHT22;27037;52.010;4.446;2022-12-07T07:13:31;3.80;99.90
41294;DHT22;27037;52.010;4.446;2022-12-07T07:15:58;3.80;99.90
41294;DHT22;27037;52.010;4.446;2022-12-07T07:18:24;3.70;99.90
41294;DHT22;27037;52.010;4.446;2022-12-07T07:20:53;3.70;99.90
41294;DHT22;27037;52.010;4.446;2022-12-07T07:23:19;3.60;99.90
41294;DHT22;27037;52.010;4.446;2022-12-07T07:25:45;3.60;99.90
41294;DHT22;27037;52.010;4.446;2022-12-07T07:28:11;3.60;99.90
41294;DHT22;27037;52.010;4.446;2022-12-07T07:30:37;3.60;99.90
41294;DHT22;27037;52.010;4.446;2022-12-07T07:33:03;3.60;99.90
41294;DHT22;27037;52.010;4.446;2022-12-07T07:35:31;3.70;99.90
41294;DHT22;27037;52.010;4.446;2022-12-07T07:37:56;3.80;99.90
41294;DHT22;27037;52.010;4.446;2022-12-07T07:40:22;3.90;99.90
41294;DHT22;27037;52.010;4.446;2022-12-07T07:42:49;4.00;99.90
41294;DHT22;27037;52.010;4.446;2022-12-07T07:45:15;4.10;99.90
41294;DHT22;27037;52.010;4.446;2022-12-07T07:47:41;4.10;99.90
41294;DHT22;27037;52.010;4.446;2022-12-07T07:50:07;4.20;99.90
41294;DHT22;27037;52.010;4.446;2022-12-07T07:52:33;4.20;99.90
41294;DHT22;27037;52.010;4.446;2022-12-07T07:54:58;4.30;99.90
41294;DHT22;27037;52.010;4.446;2022-12-07T07:57:24;4.30;99.90
41294;DHT22;27037;52.010;4.446;2022-12-07T07:59:49;4.40;99.90
41294;DHT22;27037;52.010;4.446;2022-12-07T08:02:17;4.50;99.90
41294;DHT22;27037;52.010;4.446;2022-12-07T08:04:44;4.40;99.90
41294;DHT22;27037;52.010;4.446;2022-12-07T08:07:10;4.40;99.90
41294;DHT22;27037;52.010;4.446;2022-12-07T08:09:35;4.30;99.90
41294;DHT22;27037;52.010;4.446;2022-12-07T08:12:01;4.30;99.90
41294;DHT22;27037;52.010;4.446;2022-12-07T08:14:27;4.30;99.90
41294;DHT22;27037;52.010;4.446;2022-12-07T08:16:54;4.30;99.90
41294;DHT22;27037;52.010;4.446;2022-12-07T08:19:20;4.30;99.90
41294;DHT22;27037;52.010;4.446;2022-12-07T08:21:45;4.30;99.90
41294;DHT22;27037;52.010;4.446;2022-12-07T08:24:11;4.30;99.90
41294;DHT22;27037;52.010;4.446;2022-12-07T08:26:37;4.30;99.90
41294;DHT22;27037;52.010;4.446;2022-12-07T08:29:02;4.20;99.90
41294;DHT22;27037;52.010;4.446;2022-12-07T08:31:28;4.20;99.90
41294;DHT22;27037;52.010;4.446;2022-12-07T08:33:54;4.20;99.90
41294;DHT22;27037;52.010;4.446;2022-12-07T08:36:20;4.10;99.90
41294;DHT22;27037;52.010;4.446;2022-12-07T08:38:47;4.10;99.90
41294;DHT22;27037;52.010;4.446;2022-12-07T08:41:12;4.10;99.90
41294;DHT22;27037;52.010;4.446;2022-12-07T08:43:38;4.10;99.90
41294;DHT22;27037;52.010;4.446;2022-12-07T08:46:11;4.00;99.90
41294;DHT22;27037;52.010;4.446;2022-12-07T08:48:46;4.00;99.90
41294;DHT22;27037;52.010;4.446;2022-12-07T08:51:13;4.00;99.90
41294;DHT22;27037;52.010;4.446;2022-12-07T08:53:40;4.00;99.90
41294;DHT22;27037;52.010;4.446;2022-12-07T08:56:07;4.00;99.90
41294;DHT22;27037;52.010;4.446;2022-12-07T08:58:34;4.00;99.90
41294;DHT22;27037;52.010;4.446;2022-12-07T09:01:00;4.10;99.90
41294;DHT22;27037;52.010;4.446;2022-12-07T09:03:26;4.10;99.90
41294;DHT22;27037;52.010;4.446;2022-12-07T09:05:53;4.20;99.90
41294;DHT22;27037;52.010;4.446;2022-12-07T09:08:19;4.20;99.90
41294;DHT22;27037;52.010;4.446;2022-12-07T09:10:46;4.30;99.90
41294;DHT22;27037;52.010;4.446;2022-12-07T09:13:11;4.40;99.90
41294;DHT22;27037;52.010;4.446;2022-12-07T09:15:37;4.50;99.90
41294;DHT22;27037;52.010;4.446;2022-12-07T09:18:04;4.70;99.90
41294;DHT22;27037;52.010;4.446;2022-12-07T09:20:30;4.70;99.90
41294;DHT22;27037;52.010;4.446;2022-12-07T09:22:55;4.80;99.90
41294;DHT22;27037;52.010;4.446;2022-12-07T09:25:21;4.80;99.90
41294;DHT22;27037;52.010;4.446;2022-12-07T09:27:48;4.80;99.90
41294;DHT22;27037;52.010;4.446;2022-12-07T09:30:20;4.90;99.90
41294;DHT22;27037;52.010;4.446;2022-12-07T09:32:45;4.90;99.90
41294;DHT22;27037;52.010;4.446;2022-12-07T09:35:11;4.90;99.90
41294;DHT22;27037;52.010;4.446;2022-12-07T09:37:36;4.90;99.90
41294;DHT22;27037;52.010;4.446;2022-12-07T09:40:03;4.90;99.90
41294;DHT22;27037;52.010;4.446;2022-12-07T09:45:01;5.10;99.90
41294;DHT22;27037;52.010;4.446;2022-12-07T09:47:27;5.10;99.90
41294;DHT22;27037;52.010;4.446;2022-12-07T09:50:00;5.10;99.90
41294;DHT22;27037;52.010;4.446;2022-12-07T09:52:29;5.20;99.90
41294;DHT22;27037;52.010;4.446;2022-12-07T09:54:55;5.30;99.90
41294;DHT22;27037;52.010;4.446;2022-12-07T09:57:30;5.40;99.90
41294;DHT22;27037;52.010;4.446;2022-12-07T10:00:01;5.50;99.90
41294;DHT22;27037;52.010;4.446;2022-12-07T10:02:34;5.70;99.90
41294;DHT22;27037;52.010;4.446;2022-12-07T10:05:00;5.80;99.90
41294;DHT22;27037;52.010;4.446;2022-12-07T10:07:26;5.90;99.90
41294;DHT22;27037;52.010;4.446;2022-12-07T10:09:52;6.00;99.90
41294;DHT22;27037;52.010;4.446;2022-12-07T10:12:18;6.10;99.90
41294;DHT22;27037;52.010;4.446;2022-12-07T10:15:01;6.10;99.90
41294;DHT22;27037;52.010;4.446;2022-12-07T10:17:36;6.10;99.90
41294;DHT22;27037;52.010;4.446;2022-12-07T10:20:28;6.20;99.90
41294;DHT22;27037;52.010;4.446;2022-12-07T10:23:04;6.20;99.90
41294;DHT22;27037;52.010;4.446;2022-12-07T10:25:33;6.20;99.90
41294;DHT22;27037;52.010;4.446;2022-12-07T10:28:17;6.20;99.90
41294;DHT22;27037;52.010;4.446;2022-12-07T10:30:53;6.30;99.90
41294;DHT22;27037;52.010;4.446;2022-12-07T10:33:40;6.30;99.90
41294;DHT22;27037;52.010;4.446;2022-12-07T10:36:37;6.30;99.90
41294;DHT22;27037;52.010;4.446;2022-12-07T10:41:29;6.40;99.90
41294;DHT22;27037;52.010;4.446;2022-12-07T10:43:56;6.40;99.90
41294;DHT22;27037;52.010;4.446;2022-12-07T10:51:45;6.60;99.90
41294;DHT22;27037;52.010;4.446;2022-12-07T10:54:41;6.60;99.90
41294;DHT22;27037;52.010;4.446;2022-12-07T10:57:37;6.70;99.90
41294;DHT22;27037;52.010;4.446;2022-12-07T11:02:50;6.70;99.90
41294;DHT22;27037;52.010;4.446;2022-12-07T11:11:06;6.80;99.90
41294;DHT22;27037;52.010;4.446;2022-12-07T11:16:30;6.90;99.90
41294;DHT22;27037;52.010;4.446;2022-12-07T11:27:30;7.10;99.90
41294;DHT22;27037;52.010;4.446;2022-12-07T11:41:09;6.70;99.90
41294;DHT22;27037;52.010;4.446;2022-12-07T11:43:59;6.50;99.90
41294;DHT22;27037;52.010;4.446;2022-12-07T11:49:43;6.10;99.90
41294;DHT22;27037;52.010;4.446;2022-12-07T11:52:20;6.00;99.90
41294;DHT22;27037;52.010;4.446;2022-12-07T11:54:50;6.00;99.90
41294;DHT22;27037;52.010;4.446;2022-12-07T11:57:24;5.90;99.90
41294;DHT22;27037;52.010;4.446;2022-12-07T12:00:01;5.90;99.90
41294;DHT22;27037;52.010;4.446;2022-12-07T12:02:43;6.00;99.90
41294;DHT22;27037;52.010;4.446;2022-12-07T12:05:18;6.00;99.90
41294;DHT22;27037;52.010;4.446;2022-12-07T12:07:45;6.00;99.90
41294;DHT22;27037;52.010;4.446;2022-12-07T12:10:18;6.10;99.90
41294;DHT22;27037;52.010;4.446;2022-12-07T12:26:01;6.70;99.90
41294;DHT22;27037;52.010;4.446;2022-12-07T12:28:35;6.80;99.90
41294;DHT22;27037;52.010;4.446;2022-12-07T12:31:09;6.90;99.90
41294;DHT22;27037;52.010;4.446;2022-12-07T12:33:37;6.90;99.90
41294;DHT22;27037;52.010;4.446;2022-12-07T12:39:08;7.10;99.90
41294;DHT22;27037;52.010;4.446;2022-12-07T12:51:59;7.50;99.90
41294;DHT22;27037;52.010;4.446;2022-12-07T12:54:27;7.60;99.90
41294;DHT22;27037;52.010;4.446;2022-12-07T13:02:37;7.80;99.90
41294;DHT22;27037;52.010;4.446;2022-12-07T13:10:33;7.70;99.90
41294;DHT22;27037;52.010;4.446;2022-12-07T13:15:53;7.40;99.90
41294;DHT22;27037;52.010;4.446;2022-12-07T13:18:24;7.20;99.90
41294;DHT22;27037;52.010;4.446;2022-12-07T13:23:56;7.00;99.90
41294;DHT22;27037;52.010;4.446;2022-12-07T13:26:42;6.80;99.90
41294;DHT22;27037;52.010;4.446;2022-12-07T13:34:28;6.80;99.90
41294;DHT22;27037;52.010;4.446;2022-12-07T13:36:54;6.80;99.90
41294;DHT22;27037;52.010;4.446;2022-12-07T13:39:22;6.90;99.90
41294;DHT22;27037;52.010;4.446;2022-12-07T13:41:57;6.90;99.90
41294;DHT22;27037;52.010;4.446;2022-12-07T13:44:24;6.90;99.90
41294;DHT22;27037;52.010;4.446;2022-12-07T13:49:29;7.10;99.90
41294;DHT22;27037;52.010;4.446;2022-12-07T13:57:22;7.20;99.90
41294;DHT22;27037;52.010;4.446;2022-12-07T13:59:49;7.20;99.90
41294;DHT22;27037;52.010;4.446;2022-12-07T14:02:29;7.30;99.90
41294;DHT22;27037;52.010;4.446;2022-12-07T14:05:23;7.30;99.90
41294;DHT22;27037;52.010;4.446;2022-12-07T14:07:59;7.30;99.90
41294;DHT22;27037;52.010;4.446;2022-12-07T14:12:53;7.20;99.90
41294;DHT22;27037;52.010;4.446;2022-12-07T14:15:21;7.10;99.90
41294;DHT22;27037;52.010;4.446;2022-12-07T14:17:53;7.10;99.90
41294;DHT22;27037;52.010;4.446;2022-12-07T14:23:01;7.10;99.90
41294;DHT22;27037;52.010;4.446;2022-12-07T14:25:48;7.10;99.90
41294;DHT22;27037;52.010;4.446;2022-12-07T14:28:35;7.10;99.90
41294;DHT22;27037;52.010;4.446;2022-12-07T14:31:01;7.00;99.90
41294;DHT22;27037;52.010;4.446;2022-12-07T14:33:28;7.00;99.90
41294;DHT22;27037;52.010;4.446;2022-12-07T14:35:54;7.00;99.90
41294;DHT22;27037;52.010;4.446;2022-12-07T14:38:24;7.00;99.90
41294;DHT22;27037;52.010;4.446;2022-12-07T14:40:51;7.00;99.90
41294;DHT22;27037;52.010;4.446;2022-12-07T14:43:18;7.00;99.90
41294;DHT22;27037;52.010;4.446;2022-12-07T14:45:44;7.00;99.90
41294;DHT22;27037;52.010;4.446;2022-12-07T14:48:14;7.00;99.90
41294;DHT22;27037;52.010;4.446;2022-12-07T14:50:43;7.00;99.90
41294;DHT22;27037;52.010;4.446;2022-12-07T14:53:13;7.00;99.90
41294;DHT22;27037;52.010;4.446;2022-12-07T14:55:39;6.90;99.90
41294;DHT22;27037;52.010;4.446;2022-12-07T14:58:05;6.90;99.90
41294;DHT22;27037;52.010;4.446;2022-12-07T15:00:31;6.90;99.90
41294;DHT22;27037;52.010;4.446;2022-12-07T15:02:58;6.90;99.90
41294;DHT22;27037;52.010;4.446;2022-12-07T15:05:24;6.90;99.90
41294;DHT22;27037;52.010;4.446;2022-12-07T15:07:50;6.90;99.90
41294;DHT22;27037;52.010;4.446;2022-12-07T15:10:20;6.90;99.90
41294;DHT22;27037;52.010;4.446;2022-12-07T15:12:46;6.90;99.90
41294;DHT22;27037;52.010;4.446;2022-12-07T15:15:12;6.80;99.90
41294;DHT22;27037;52.010;4.446;2022-12-07T15:17:38;6.80;99.90
41294;DHT22;27037;52.010;4.446;2022-12-07T15:20:04;6.80;99.90
41294;DHT22;27037;52.010;4.446;2022-12-07T15:22:30;6.80;99.90
41294;DHT22;27037;52.010;4.446;2022-12-07T15:24:57;6.80;99.90
41294;DHT22;27037;52.010;4.446;2022-12-07T15:27:22;6.80;99.90
41294;DHT22;27037;52.010;4.446;2022-12-07T15:29:48;6.70;99.90
41294;DHT22;27037;52.010;4.446;2022-12-07T15:32:13;6.70;99.90
41294;DHT22;27037;52.010;4.446;2022-12-07T15:34:39;6.60;99.90
41294;DHT22;27037;52.010;4.446;2022-12-07T15:37:05;6.60;99.90
41294;DHT22;27037;52.010;4.446;2022-12-07T15:39:30;6.50;99.90
41294;DHT22;27037;52.010;4.446;2022-12-07T15:41:56;6.50;99.90
41294;DHT22;27037;52.010;4.446;2022-12-07T15:44:22;6.50;99.90
41294;DHT22;27037;52.010;4.446;2022-12-07T15:47:06;6.40;99.90
41294;DHT22;27037;52.010;4.446;2022-12-07T15:49:32;6.40;99.90
41294;DHT22;27037;52.010;4.446;2022-12-07T15:51:57;6.40;99.90
41294;DHT22;27037;52.010;4.446;2022-12-07T15:54:25;6.30;99.90
41294;DHT22;27037;52.010;4.446;2022-12-07T15:56:51;6.30;99.90
41294;DHT22;27037;52.010;4.446;2022-12-07T15:59:17;6.40;99.90
41294;DHT22;27037;52.010;4.446;2022-12-07T16:01:43;6.30;99.90
41294;DHT22;27037;52.010;4.446;2022-12-07T16:04:08;6.30;99.90
41294;DHT22;27037;52.010;4.446;2022-12-07T16:06:34;6.40;99.90
41294;DHT22;27037;52.010;4.446;2022-12-07T16:09:00;6.30;99.90
41294;DHT22;27037;52.010;4.446;2022-12-07T16:11:26;6.30;99.90
41294;DHT22;27037;52.010;4.446;2022-12-07T16:13:51;6.30;99.90
41294;DHT22;27037;52.010;4.446;2022-12-07T16:16:18;6.30;99.90
41294;DHT22;27037;52.010;4.446;2022-12-07T16:18:46;6.30;99.90
41294;DHT22;27037;52.010;4.446;2022-12-07T16:21:12;6.30;99.90
41294;DHT22;27037;52.010;4.446;2022-12-07T16:23:38;6.30;99.90
41294;DHT22;27037;52.010;4.446;2022-12-07T16:26:10;6.20;99.90
41294;DHT22;27037;52.010;4.446;2022-12-07T16:28:35;6.20;99.90
41294;DHT22;27037;52.010;4.446;2022-12-07T16:31:08;6.20;99.90
41294;DHT22;27037;52.010;4.446;2022-12-07T16:33:35;6.20;99.90
41294;DHT22;27037;52.010;4.446;2022-12-07T16:36:02;6.20;99.90
41294;DHT22;27037;52.010;4.446;2022-12-07T16:38:28;6.10;99.90
41294;DHT22;27037;52.010;4.446;2022-12-07T16:40:54;6.10;99.90
41294;DHT22;27037;52.010;4.446;2022-12-07T16:43:20;6.20;99.90
41294;DHT22;27037;52.010;4.446;2022-12-07T16:45:46;6.10;99.90
41294;DHT22;27037;52.010;4.446;2022-12-07T16:48:13;6.10;99.90
41294;DHT22;27037;52.010;4.446;2022-12-07T16:50:40;6.10;99.90
41294;DHT22;27037;52.010;4.446;2022-12-07T16:53:07;6.10;99.90
41294;DHT22;27037;52.010;4.446;2022-12-07T16:55:40;6.10;99.90
41294;DHT22;27037;52.010;4.446;2022-12-07T16:58:07;6.10;99.90
41294;DHT22;27037;52.010;4.446;2022-12-07T17:00:33;6.00;99.90
41294;DHT22;27037;52.010;4.446;2022-12-07T17:02:59;6.00;99.90
41294;DHT22;27037;52.010;4.446;2022-12-07T17:05:26;6.00;99.90
41294;DHT22;27037;52.010;4.446;2022-12-07T17:07:53;6.00;99.90
41294;DHT22;27037;52.010;4.446;2022-12-07T17:10:19;6.00;99.90
41294;DHT22;27037;52.010;4.446;2022-12-07T17:12:44;6.00;99.90
41294;DHT22;27037;52.010;4.446;2022-12-07T17:15:10;6.00;99.90
41294;DHT22;27037;52.010;4.446;2022-12-07T17:17:44;6.00;99.90
41294;DHT22;27037;52.010;4.446;2022-12-07T17:20:10;5.90;99.90
41294;DHT22;27037;52.010;4.446;2022-12-07T17:22:35;5.90;99.90
41294;DHT22;27037;52.010;4.446;2022-12-07T17:25:01;5.90;99.90
41294;DHT22;27037;52.010;4.446;2022-12-07T17:27:27;5.90;99.90
41294;DHT22;27037;52.010;4.446;2022-12-07T17:29:53;5.90;99.90
41294;DHT22;27037;52.010;4.446;2022-12-07T17:32:18;6.00;99.90
41294;DHT22;27037;52.010;4.446;2022-12-07T17:34:44;5.90;99.90
41294;DHT22;27037;52.010;4.446;2022-12-07T17:37:09;6.00;99.90
41294;DHT22;27037;52.010;4.446;2022-12-07T17:39:35;5.90;99.90
41294;DHT22;27037;52.010;4.446;2022-12-07T17:42:01;6.00;99.90
41294;DHT22;27037;52.010;4.446;2022-12-07T17:44:45;6.00;99.90
41294;DHT22;27037;52.010;4.446;2022-12-07T17:47:10;6.00;99.90
41294;DHT22;27037;52.010;4.446;2022-12-07T17:49:36;6.00;99.90
41294;DHT22;27037;52.010;4.446;2022-12-07T17:52:01;6.00;99.90
41294;DHT22;27037;52.010;4.446;2022-12-07T17:54:45;6.00;99.90
41294;DHT22;27037;52.010;4.446;2022-12-07T17:57:11;6.00;99.90
41294;DHT22;27037;52.010;4.446;2022-12-07T17:59:37;6.00;99.90
41294;DHT22;27037;52.010;4.446;2022-12-07T18:02:02;6.00;99.90
41294;DHT22;27037;52.010;4.446;2022-12-07T18:04:28;6.00;99.90
41294;DHT22;27037;52.010;4.446;2022-12-07T18:06:53;6.00;99.90
41294;DHT22;27037;52.010;4.446;2022-12-07T18:09:20;6.00;99.90
41294;DHT22;27037;52.010;4.446;2022-12-07T18:11:46;6.00;99.90
41294;DHT22;27037;52.010;4.446;2022-12-07T18:14:12;5.90;99.90